createdAt,value
2018-05-10T00:00:39.519Z,19.80
2018-05-10T00:05:38.506Z,19.70
2018-05-10T00:08:08.174Z,19.70
2018-05-10T00:10:37.862Z,19.80
2018-05-10T00:13:06.772Z,19.80
2018-05-10T00:15:35.681Z,19.70
2018-05-10T00:18:04.581Z,19.60
2018-05-10T00:20:33.899Z,19.60
2018-05-10T00:25:34.398Z,19.50
2018-05-10T00:28:04.464Z,19.40
2018-05-10T00:30:33.404Z,19.40
2018-05-10T00:33:03.434Z,19.30
2018-05-10T00:38:03.160Z,19.30
2018-05-10T00:43:02.516Z,19.30
2018-05-10T00:45:31.443Z,19.10
2018-05-10T00:48:01.872Z,19.10
2018-05-10T00:50:32.302Z,19.10
2018-05-10T00:53:02.335Z,19.20
2018-05-10T00:55:31.260Z,19.10
2018-05-10T00:58:00.158Z,19.10
2018-05-10T01:00:29.473Z,19.00
2018-05-10T01:02:58.373Z,20.20
2018-05-10T01:05:27.287Z,19.00
2018-05-10T01:07:56.965Z,19.00
2018-05-10T01:10:25.904Z,19.10
2018-05-10T01:12:55.187Z,19.10
2018-05-10T01:15:25.608Z,19.10
2018-05-10T01:20:24.596Z,19.10
2018-05-10T01:22:53.511Z,19.10
2018-05-10T01:27:52.493Z,19.20
2018-05-10T01:30:22.171Z,19.20
2018-05-10T01:32:51.515Z,19.10
2018-05-10T01:35:32.603Z,19.00
2018-05-10T01:38:01.577Z,19.00
2018-05-10T01:40:30.463Z,18.90
2018-05-10T01:43:00.905Z,18.80
2018-05-10T01:45:30.578Z,18.80
2018-05-10T01:47:59.506Z,18.80
2018-05-10T01:50:28.803Z,18.70
2018-05-10T01:55:27.805Z,18.70
2018-05-10T01:57:57.503Z,18.70
2018-05-10T02:00:26.402Z,18.60
2018-05-10T02:02:56.080Z,18.60
2018-05-10T02:05:26.507Z,18.60
2018-05-10T02:07:56.164Z,18.50
2018-05-10T02:10:25.109Z,18.50
2018-05-10T02:12:54.411Z,18.40
2018-05-10T02:15:24.831Z,18.30
2018-05-10T02:17:53.740Z,18.20
2018-05-10T02:20:22.667Z,18.20
2018-05-10T02:22:52.445Z,18.20
2018-05-10T02:25:21.333Z,18.10
2018-05-10T02:27:51.019Z,18.00
2018-05-10T02:30:19.933Z,18.00
2018-05-10T02:32:49.620Z,17.90
2018-05-10T02:35:18.535Z,17.90
2018-05-10T02:37:48.197Z,17.80
2018-05-10T02:40:17.127Z,17.80
2018-05-10T02:42:47.183Z,17.70
2018-05-10T02:45:17.593Z,17.80
2018-05-10T02:47:46.521Z,17.70
2018-05-10T02:50:15.429Z,17.70
2018-05-10T02:55:15.923Z,17.60
2018-05-10T02:57:45.260Z,17.60
2018-05-10T03:00:14.163Z,17.60
2018-05-10T03:02:43.102Z,17.50
2018-05-10T03:05:12.378Z,17.60
2018-05-10T03:07:42.065Z,17.60
2018-05-10T03:10:10.969Z,17.60
2018-05-10T03:15:09.949Z,17.20
2018-05-10T03:17:38.871Z,16.90
2018-05-10T03:20:08.551Z,16.90
2018-05-10T03:22:37.482Z,16.90
2018-05-10T03:25:06.396Z,16.90
2018-05-10T03:27:35.300Z,17.10
2018-05-10T03:30:04.231Z,17.10
2018-05-10T03:35:03.757Z,17.20
2018-05-10T03:37:33.430Z,17.30
2018-05-10T03:40:02.337Z,17.20
2018-05-10T03:42:31.665Z,17.00
2018-05-10T03:45:01.366Z,17.10
2018-05-10T03:47:31.025Z,17.30
2018-05-10T03:49:59.956Z,17.40
2018-05-10T03:52:29.257Z,17.30
2018-05-10T03:57:28.238Z,17.40
2018-05-10T03:59:57.155Z,17.40
2018-05-10T04:02:38.266Z,17.30
2018-05-10T04:05:19.015Z,17.30
2018-05-10T04:08:00.034Z,17.30
2018-05-10T04:10:40.894Z,17.30
2018-05-10T04:13:10.551Z,17.30
2018-05-10T04:20:40.687Z,17.30
2018-05-10T04:23:10.744Z,17.30
2018-05-10T04:25:40.434Z,17.40
2018-05-10T04:28:10.569Z,17.40
2018-05-10T04:30:39.474Z,17.40
2018-05-10T04:35:38.526Z,17.50
2018-05-10T04:38:08.147Z,17.60
2018-05-10T04:40:37.047Z,17.60
2018-05-10T04:43:06.359Z,17.50
2018-05-10T04:45:35.263Z,17.40
2018-05-10T04:48:04.165Z,17.50
2018-05-10T04:50:33.865Z,17.80
2018-05-10T04:53:03.673Z,18.00
2018-05-10T04:58:03.433Z,17.90
2018-05-10T05:00:32.352Z,18.00
2018-05-10T05:03:02.413Z,18.20
2018-05-10T05:05:31.335Z,18.30
2018-05-10T05:08:00.253Z,18.40
2018-05-10T05:12:59.255Z,18.50
2018-05-10T05:15:28.963Z,18.50
2018-05-10T05:17:58.640Z,18.70
2018-05-10T05:20:27.568Z,18.70
2018-05-10T05:22:57.237Z,18.50
2018-05-10T05:25:26.264Z,18.40
2018-05-10T05:27:55.251Z,18.20
2018-05-10T05:30:24.135Z,18.40
2018-05-10T05:32:54.582Z,18.70
2018-05-10T05:35:24.253Z,18.90
2018-05-10T05:37:53.189Z,19.00
2018-05-10T05:40:22.892Z,18.90
2018-05-10T05:45:21.846Z,19.00
2018-05-10T05:47:50.769Z,18.80
2018-05-10T05:50:20.457Z,18.90
2018-05-10T05:52:49.417Z,19.10
2018-05-10T05:55:19.280Z,19.10
2018-05-10T05:57:48.985Z,19.30
2018-05-10T06:00:17.891Z,19.30
2018-05-10T06:02:48.342Z,19.00
2018-05-10T06:05:17.706Z,19.00
2018-05-10T06:07:46.646Z,18.90
2018-05-10T06:10:15.974Z,18.80
2018-05-10T06:12:46.426Z,18.90
2018-05-10T06:15:16.491Z,18.80
2018-05-10T06:17:45.464Z,18.70
2018-05-10T06:20:15.520Z,18.70
2018-05-10T06:22:44.459Z,18.40
2018-05-10T06:25:13.464Z,18.40
2018-05-10T06:27:42.329Z,18.40
2018-05-10T06:30:12.023Z,18.50
2018-05-10T06:32:41.712Z,18.60
2018-05-10T06:35:10.655Z,18.60
2018-05-10T06:37:41.275Z,18.60
2018-05-10T06:40:10.210Z,18.50
2018-05-10T06:42:39.535Z,18.50
2018-05-10T06:45:09.233Z,18.40
2018-05-10T06:47:38.585Z,18.20
2018-05-10T06:50:07.510Z,18.20
2018-05-10T06:52:37.579Z,18.40
2018-05-10T06:57:37.035Z,18.20
2018-05-10T07:00:05.961Z,18.30
2018-05-10T07:05:05.355Z,18.70
2018-05-10T07:07:34.291Z,18.60
2018-05-10T07:10:03.641Z,18.70
2018-05-10T07:12:33.633Z,18.60
2018-05-10T07:15:02.536Z,18.60
2018-05-10T07:17:31.486Z,18.80
2018-05-10T07:20:00.432Z,18.90
2018-05-10T07:22:29.357Z,19.10
2018-05-10T07:24:58.366Z,19.20
2018-05-10T07:27:27.235Z,19.30
2018-05-10T07:29:56.151Z,19.30
2018-05-10T07:32:25.578Z,19.20
2018-05-10T07:34:54.471Z,19.10
2018-05-10T07:37:23.511Z,19.10
2018-05-10T07:39:53.578Z,19.20
2018-05-10T07:42:23.657Z,19.30
2018-05-10T07:44:53.359Z,19.20
2018-05-10T07:47:23.122Z,19.20
2018-05-10T07:49:53.514Z,19.30
2018-05-10T07:52:22.459Z,19.30
2018-05-10T07:59:52.428Z,19.10
2018-05-10T08:02:23.653Z,19.20
2018-05-10T08:04:52.585Z,19.30
2018-05-10T08:07:21.654Z,19.30
2018-05-10T08:09:50.586Z,19.30
2018-05-10T08:12:19.532Z,19.10
2018-05-10T08:14:48.821Z,19.10
2018-05-10T08:17:19.336Z,19.00
2018-05-10T08:19:48.285Z,18.70
2018-05-10T08:22:17.832Z,18.70
2018-05-10T08:24:46.783Z,18.60
2018-05-10T08:27:15.695Z,18.60
2018-05-10T08:32:17.615Z,19.40
2018-05-10T08:34:46.561Z,19.80
2018-05-10T08:37:15.514Z,20.00
2018-05-10T08:39:45.608Z,20.00
2018-05-10T08:44:45.466Z,19.90
2018-05-10T08:47:14.435Z,19.80
2018-05-10T08:49:43.371Z,19.60
2018-05-10T08:54:42.393Z,19.30
2018-05-10T08:57:11.739Z,19.50
2018-05-10T08:59:40.668Z,20.00
2018-05-10T09:02:09.597Z,20.20
2018-05-10T09:04:38.547Z,20.10
2018-05-10T09:09:38.334Z,20.10
2018-05-10T09:12:08.043Z,20.20
2018-05-10T09:14:37.740Z,20.00
2018-05-10T09:17:07.436Z,19.90
2018-05-10T09:19:36.368Z,19.70
2018-05-10T09:22:06.429Z,19.70
2018-05-10T09:27:06.226Z,19.30
2018-05-10T09:29:35.528Z,19.10
2018-05-10T09:32:04.479Z,19.20
2018-05-10T09:34:33.513Z,19.40
2018-05-10T09:37:02.563Z,19.40
2018-05-10T09:39:32.542Z,19.30
2018-05-10T09:42:01.448Z,19.30
2018-05-10T09:44:30.491Z,19.30
2018-05-10T09:47:00.271Z,19.30
2018-05-10T09:49:29.205Z,19.40
2018-05-10T09:51:58.148Z,19.50
2018-05-10T09:54:27.843Z,19.60
2018-05-10T09:59:26.870Z,19.90
2018-05-10T10:01:56.952Z,19.90
2018-05-10T10:04:25.851Z,20.10
2018-05-10T10:06:54.799Z,20.20
2018-05-10T10:09:24.497Z,20.50
2018-05-10T10:11:53.443Z,20.70
2018-05-10T10:14:22.457Z,21.00
2018-05-10T10:16:51.382Z,20.90
2018-05-10T10:19:21.451Z,20.90
2018-05-10T10:21:50.394Z,21.10
2018-05-10T10:24:19.346Z,21.10
2018-05-10T10:29:19.552Z,20.50
2018-05-10T10:31:49.229Z,20.40
2018-05-10T10:34:18.155Z,20.50
2018-05-10T10:36:47.235Z,20.60
2018-05-10T10:39:16.141Z,20.30
2018-05-10T10:41:45.067Z,20.40
2018-05-10T10:44:13.998Z,20.70
2018-05-10T10:49:13.375Z,20.60
2018-05-10T10:51:43.057Z,20.70
2018-05-10T10:54:12.741Z,20.60
2018-05-10T10:56:41.699Z,20.70
2018-05-10T10:59:11.739Z,20.60
2018-05-10T11:01:40.701Z,20.60
2018-05-10T11:04:09.612Z,20.30
2018-05-10T11:06:38.527Z,19.70
2018-05-10T11:09:08.276Z,19.40
2018-05-10T11:11:37.143Z,18.90
2018-05-10T11:14:07.201Z,19.00
2018-05-10T11:16:36.517Z,18.70
2018-05-10T11:19:05.461Z,18.60
2018-05-10T11:21:34.365Z,18.50
2018-05-10T11:24:04.068Z,18.70
2018-05-10T11:26:32.987Z,18.50
2018-05-10T11:29:01.988Z,18.10
2018-05-10T11:31:30.845Z,18.10
2018-05-10T11:34:01.268Z,17.90
2018-05-10T11:36:30.565Z,17.80
2018-05-10T11:38:59.530Z,17.90
2018-05-10T11:41:28.431Z,17.80
2018-05-10T11:43:57.341Z,17.80
2018-05-10T11:48:57.462Z,17.80
2018-05-10T11:53:56.463Z,17.50
2018-05-10T11:56:25.380Z,17.50
2018-05-10T11:58:54.721Z,17.00
2018-05-10T12:01:23.635Z,16.80
2018-05-10T12:06:22.637Z,16.50
2018-05-10T12:08:51.965Z,16.60
2018-05-10T12:11:21.280Z,16.60
2018-05-10T12:18:50.298Z,16.50
2018-05-10T12:21:19.238Z,16.40
2018-05-10T12:23:48.175Z,16.40
2018-05-10T12:26:17.471Z,16.40
2018-05-10T12:31:16.475Z,16.30
2018-05-10T12:33:46.174Z,16.10
2018-05-10T12:36:15.110Z,16.10
2018-05-10T12:38:44.051Z,16.00
2018-05-10T12:41:13.362Z,16.00
2018-05-10T12:43:43.041Z,16.00
2018-05-10T12:46:12.711Z,16.10
2018-05-10T12:48:42.425Z,16.20
2018-05-10T12:51:11.327Z,16.00
2018-05-10T12:53:40.361Z,16.00
2018-05-10T12:56:09.373Z,15.80
2018-05-10T13:01:10.181Z,15.90
2018-05-10T13:03:39.511Z,15.90
2018-05-10T13:06:09.179Z,15.50
2018-05-10T13:08:38.509Z,15.40
2018-05-10T13:11:08.193Z,15.30
2018-05-10T13:16:07.652Z,15.10
2018-05-10T13:18:37.275Z,14.80
2018-05-10T13:21:06.255Z,14.90
2018-05-10T13:23:35.183Z,14.90
2018-05-10T13:31:04.264Z,15.10
2018-05-10T13:33:33.593Z,15.10
2018-05-10T13:36:03.660Z,15.20
2018-05-10T13:38:32.567Z,15.10
2018-05-10T13:41:01.897Z,15.20
2018-05-10T13:43:30.819Z,15.20
2018-05-10T13:48:30.616Z,15.20
2018-05-10T13:51:00.687Z,15.20
2018-05-10T13:56:00.463Z,15.30
2018-05-10T13:58:29.377Z,15.10
2018-05-10T14:00:59.431Z,15.20
2018-05-10T14:05:59.192Z,15.20
2018-05-10T14:10:58.172Z,15.20
2018-05-10T14:13:27.105Z,15.30
2018-05-10T14:15:56.032Z,15.10
2018-05-10T14:18:25.359Z,15.00
2018-05-10T14:20:55.419Z,15.00
2018-05-10T14:23:24.727Z,14.90
2018-05-10T14:25:53.653Z,15.00
2018-05-10T14:28:23.331Z,15.00
2018-05-10T14:30:53.773Z,15.10
2018-05-10T14:35:52.741Z,14.90
2018-05-10T14:38:21.645Z,15.00
2018-05-10T14:40:50.573Z,14.90
2018-05-10T14:43:19.499Z,15.00
2018-05-10T14:45:48.827Z,15.20
2018-05-10T14:48:17.742Z,15.40
2018-05-10T14:50:47.419Z,15.50
2018-05-10T14:53:16.355Z,15.60
2018-05-10T14:55:45.684Z,15.60
2018-05-10T14:58:14.609Z,15.60
2018-05-10T15:03:14.737Z,15.60
2018-05-10T15:05:44.440Z,15.60
2018-05-10T15:08:13.365Z,15.40
2018-05-10T15:10:43.548Z,15.40
2018-05-10T15:13:13.591Z,15.60
2018-05-10T15:15:42.514Z,15.40
2018-05-10T15:18:11.433Z,15.10
2018-05-10T15:20:40.342Z,15.10
2018-05-10T15:25:39.342Z,15.00
2018-05-10T15:28:08.275Z,15.00
2018-05-10T15:30:37.965Z,15.20
2018-05-10T15:35:36.946Z,15.20
2018-05-10T15:38:05.876Z,15.00
2018-05-10T15:40:35.211Z,14.90
2018-05-10T15:43:04.525Z,14.90
2018-05-10T15:45:33.437Z,15.00
2018-05-10T15:48:02.381Z,15.00
2018-05-10T15:50:32.413Z,15.10
2018-05-10T15:53:02.496Z,15.00
2018-05-10T15:55:32.161Z,14.90
2018-05-10T15:58:01.091Z,14.90
2018-05-10T16:00:30.418Z,14.80
2018-05-10T16:03:00.090Z,14.90
2018-05-10T16:05:29.776Z,14.80
2018-05-10T16:07:58.697Z,14.80
2018-05-10T16:10:28.363Z,14.80
2018-05-10T16:12:57.692Z,15.00
2018-05-10T16:15:27.741Z,15.10
2018-05-10T16:17:56.641Z,15.10
2018-05-10T16:20:25.559Z,15.10
2018-05-10T16:22:54.477Z,15.10
2018-05-10T16:25:24.173Z,15.00
2018-05-10T16:27:53.122Z,15.00
2018-05-10T16:30:22.040Z,15.20
2018-05-10T16:32:50.990Z,15.00
2018-05-10T16:35:19.887Z,15.20
2018-05-10T16:37:49.971Z,15.10
2018-05-10T16:40:18.885Z,15.20
2018-05-10T16:42:47.812Z,15.10
2018-05-10T16:47:46.816Z,15.10
2018-05-10T16:50:16.487Z,15.10
2018-05-10T16:52:45.411Z,15.00
2018-05-10T16:57:44.405Z,14.90
2018-05-10T17:00:13.309Z,14.80
2018-05-10T17:02:42.218Z,14.80
2018-05-10T17:05:11.130Z,14.70
2018-05-10T17:07:40.940Z,14.80
2018-05-10T17:10:09.841Z,14.80
2018-05-10T17:12:39.554Z,14.90
2018-05-10T17:15:09.606Z,14.90
2018-05-10T17:17:39.776Z,14.80
2018-05-10T17:20:08.706Z,14.90
2018-05-10T17:22:38.374Z,14.90
2018-05-10T17:25:08.443Z,14.90
2018-05-10T17:27:37.336Z,14.90
2018-05-10T17:30:06.265Z,14.90
2018-05-10T17:32:36.304Z,14.80
2018-05-10T17:35:05.248Z,14.80
2018-05-10T17:37:34.921Z,14.80
2018-05-10T17:40:03.873Z,14.90
2018-05-10T17:42:33.546Z,14.80
2018-05-10T17:45:02.578Z,14.60
2018-05-10T17:47:32.256Z,14.70
2018-05-10T17:50:01.181Z,14.70
2018-05-10T17:52:30.481Z,14.70
2018-05-10T17:55:00.530Z,14.60
2018-05-10T18:00:00.289Z,14.80
2018-05-10T18:02:29.204Z,14.70
2018-05-10T18:04:58.563Z,14.70
2018-05-10T18:07:27.484Z,14.70
2018-05-10T18:09:56.410Z,14.60
2018-05-10T18:12:25.312Z,14.70
2018-05-10T18:14:54.230Z,14.70
2018-05-10T18:17:23.156Z,14.50
2018-05-10T18:19:52.072Z,14.60
2018-05-10T18:22:21.379Z,14.60
2018-05-10T18:24:50.308Z,14.40
2018-05-10T18:27:19.221Z,14.40
2018-05-10T18:29:48.598Z,14.40
2018-05-10T18:32:18.318Z,14.40
2018-05-10T18:34:47.249Z,14.20
2018-05-10T18:37:16.933Z,14.30
2018-05-10T18:39:46.633Z,14.40
2018-05-10T18:44:51.588Z,14.30
2018-05-10T18:49:50.619Z,14.50
2018-05-10T18:52:20.326Z,14.50
2018-05-10T18:54:49.293Z,14.30
2018-05-10T18:59:49.393Z,14.50
2018-05-10T19:02:18.318Z,14.50
2018-05-10T19:04:47.226Z,14.50
2018-05-10T19:07:16.220Z,14.60
2018-05-10T19:09:45.478Z,14.60
2018-05-10T19:12:14.389Z,14.50
2018-05-10T19:14:43.730Z,14.50
2018-05-10T19:17:12.675Z,14.50
2018-05-10T19:19:41.675Z,14.60
2018-05-10T19:22:10.614Z,14.60
2018-05-10T19:24:39.932Z,14.60
2018-05-10T19:27:09.614Z,14.70
2018-05-10T19:32:09.351Z,14.60
2018-05-10T19:34:38.261Z,14.70
2018-05-10T19:37:07.286Z,14.70
2018-05-10T19:39:36.518Z,14.60
2018-05-10T19:42:05.437Z,14.60
2018-05-10T19:44:35.117Z,14.50
2018-05-10T19:47:04.798Z,14.40
2018-05-10T19:49:34.497Z,14.50
2018-05-10T19:52:04.551Z,14.50
2018-05-10T19:54:33.498Z,14.40
2018-05-10T19:57:02.529Z,14.30
2018-05-10T19:59:32.501Z,14.40
2018-05-10T20:04:32.632Z,14.50
2018-05-10T20:07:02.324Z,14.50
2018-05-10T20:09:31.278Z,14.50
2018-05-10T20:12:00.177Z,14.40
2018-05-10T20:14:30.272Z,14.30
2018-05-10T20:16:59.948Z,14.10
2018-05-10T20:21:59.099Z,14.00
2018-05-10T20:24:28.136Z,14.00
2018-05-10T20:26:58.566Z,14.00
2018-05-10T20:29:29.474Z,14.00
2018-05-10T20:31:58.411Z,13.90
2018-05-10T20:34:28.815Z,13.90
2018-05-10T20:36:58.528Z,13.80
2018-05-10T20:39:28.596Z,13.90
2018-05-10T20:41:58.646Z,13.90
2018-05-10T20:44:28.430Z,13.80
2018-05-10T20:46:58.885Z,13.70
2018-05-10T20:49:28.549Z,13.70
2018-05-10T20:51:57.463Z,13.70
2018-05-10T20:54:26.770Z,13.80
2018-05-10T21:01:56.301Z,13.60
2018-05-10T21:04:26.686Z,13.70
2018-05-10T21:09:25.674Z,13.70
2018-05-10T21:11:54.604Z,13.70
2018-05-10T21:14:23.533Z,13.70
2018-05-10T21:16:52.442Z,13.60
2018-05-10T21:19:22.124Z,13.60
2018-05-10T21:21:51.557Z,13.60
2018-05-10T21:24:20.461Z,13.50
2018-05-10T21:26:49.400Z,13.50
2018-05-10T21:29:19.476Z,13.50
2018-05-10T21:34:18.482Z,13.50
2018-05-10T21:36:48.528Z,13.50
2018-05-10T21:39:18.583Z,13.50
2018-05-10T21:44:17.576Z,13.60
2018-05-10T21:46:46.483Z,13.50
2018-05-10T21:49:28.870Z,13.50
2018-05-10T21:51:58.547Z,13.50
2018-05-10T21:54:27.468Z,13.60
2018-05-10T22:09:26.690Z,13.70
2018-05-10T22:11:56.368Z,13.60
2018-05-10T22:14:25.682Z,13.70
2018-05-10T22:19:25.431Z,13.50
2018-05-10T22:21:54.353Z,13.50
2018-05-10T22:31:53.460Z,13.90
2018-05-10T22:34:22.392Z,13.90
2018-05-10T22:36:52.457Z,13.90
2018-05-10T22:39:22.532Z,13.70
2018-05-10T22:41:51.453Z,13.70
2018-05-10T22:44:20.483Z,13.70
2018-05-10T22:46:49.357Z,13.60
2018-05-10T22:49:18.655Z,13.70
2018-05-10T22:51:48.354Z,13.70
2018-05-10T22:54:18.774Z,13.70
2018-05-10T22:56:49.201Z,13.70
2018-05-10T22:59:18.503Z,13.80
2018-05-10T23:04:18.254Z,13.70
2018-05-10T23:06:47.179Z,13.60
2018-05-10T23:14:17.713Z,13.40
2018-05-10T23:16:46.638Z,13.50
2018-05-10T23:19:16.304Z,13.40
2018-05-10T23:21:45.215Z,13.40
2018-05-10T23:24:14.142Z,13.50
2018-05-10T23:26:44.566Z,13.50
2018-05-10T23:29:14.630Z,13.50
2018-05-10T23:34:13.591Z,13.40
2018-05-10T23:39:13.324Z,13.40
2018-05-10T23:41:43.737Z,13.30
2018-05-10T23:44:13.437Z,13.40
2018-05-10T23:46:42.344Z,13.40
2018-05-10T23:49:11.675Z,13.40
2018-05-10T23:51:40.587Z,13.20
2018-05-10T23:54:09.495Z,13.20
2018-05-10T23:56:38.802Z,13.20
